sensor_id;sensor_type;location;lat;lon;timestamp;pressure;altitude;pressure_sealevel;temperature;humidity
56174;BME280;42058;52.308;20.924;2023-11-18T00:00:16;100773.59;;;0.62;100.00
56174;BME280;42058;52.308;20.924;2023-11-18T00:03:05;100772.89;;;0.62;100.00
56174;BME280;42058;52.308;20.924;2023-11-18T00:05:33;100774.99;;;0.63;100.00
56174;BME280;42058;52.308;20.924;2023-11-18T00:08:00;100778.59;;;0.62;100.00
56174;BME280;42058;52.308;20.924;2023-11-18T00:10:29;100780.31;;;0.62;100.00
56174;BME280;42058;52.308;20.924;2023-11-18T00:12:57;100780.48;;;0.62;100.00
56174;BME280;42058;52.308;20.924;2023-11-18T00:15:24;100785.66;;;0.62;100.00
56174;BME280;42058;52.308;20.924;2023-11-18T00:17:53;100788.06;;;0.60;100.00
56174;BME280;42058;52.308;20.924;2023-11-18T00:20:20;100791.30;;;0.58;100.00
56174;BME280;42058;52.308;20.924;2023-11-18T00:22:51;100794.38;;;0.57;100.00
56174;BME280;42058;52.308;20.924;2023-11-18T00:25:20;100798.16;;;0.56;100.00
56174;BME280;42058;52.308;20.924;2023-11-18T00:27:48;100796.98;;;0.57;100.00
56174;BME280;42058;52.308;20.924;2023-11-18T00:30:16;100801.65;;;0.58;100.00
56174;BME280;42058;52.308;20.924;2023-11-18T00:32:43;100803.40;;;0.58;100.00
56174;BME280;42058;52.308;20.924;2023-11-18T00:35:12;100803.90;;;0.58;100.00
56174;BME280;42058;52.308;20.924;2023-11-18T00:37:39;100805.65;;;0.59;100.00
56174;BME280;42058;52.308;20.924;2023-11-18T00:40:08;100810.14;;;0.59;100.00
56174;BME280;42058;52.308;20.924;2023-11-18T00:42:37;100809.63;;;0.60;100.00
56174;BME280;42058;52.308;20.924;2023-11-18T00:45:06;100811.52;;;0.60;100.00
56174;BME280;42058;52.308;20.924;2023-11-18T00:47:34;100812.73;;;0.60;100.00
56174;BME280;42058;52.308;20.924;2023-11-18T00:50:02;100814.48;;;0.61;100.00
56174;BME280;42058;52.308;20.924;2023-11-18T00:52:31;100813.97;;;0.61;100.00
56174;BME280;42058;52.308;20.924;2023-11-18T00:54:58;100819.33;;;0.61;100.00
56174;BME280;42058;52.308;20.924;2023-11-18T00:57:26;100817.95;;;0.61;100.00
56174;BME280;42058;52.308;20.924;2023-11-18T00:59:54;100820.88;;;0.61;100.00
56174;BME280;42058;52.308;20.924;2023-11-18T01:02:22;100822.77;;;0.61;100.00
56174;BME280;42058;52.308;20.924;2023-11-18T01:04:50;100833.65;;;0.61;100.00
56174;BME280;42058;52.308;20.924;2023-11-18T01:07:18;100824.48;;;0.60;100.00
56174;BME280;42058;52.308;20.924;2023-11-18T01:09:45;100827.77;;;0.61;100.00
56174;BME280;42058;52.308;20.924;2023-11-18T01:12:13;100823.98;;;0.61;100.00
56174;BME280;42058;52.308;20.924;2023-11-18T01:14:41;100822.79;;;0.61;100.00
56174;BME280;42058;52.308;20.924;2023-11-18T01:17:09;100823.64;;;0.61;100.00
56174;BME280;42058;52.308;20.924;2023-11-18T01:19:37;100824.52;;;0.61;100.00
56174;BME280;42058;52.308;20.924;2023-11-18T01:22:05;100823.29;;;0.61;100.00
56174;BME280;42058;52.308;20.924;2023-11-18T01:24:34;100825.38;;;0.62;100.00
56174;BME280;42058;52.308;20.924;2023-11-18T01:27:02;100825.88;;;0.61;100.00
56174;BME280;42058;52.308;20.924;2023-11-18T01:29:30;100822.43;;;0.61;100.00
56174;BME280;42058;52.308;20.924;2023-11-18T01:31:58;100827.58;;;0.59;100.00
56174;BME280;42058;52.308;20.924;2023-11-18T01:34:26;100826.36;;;0.58;100.00
56174;BME280;42058;52.308;20.924;2023-11-18T01:36:55;100821.53;;;0.59;100.00
56174;BME280;42058;52.308;20.924;2023-11-18T01:39:24;100819.63;;;0.59;100.00
56174;BME280;42058;52.308;20.924;2023-11-18T01:41:55;100817.20;;;0.58;100.00
56174;BME280;42058;52.308;20.924;2023-11-18T01:44:23;100819.45;;;0.59;100.00
56174;BME280;42058;52.308;20.924;2023-11-18T01:46:51;100821.55;;;0.60;100.00
56174;BME280;42058;52.308;20.924;2023-11-18T01:49:21;100821.73;;;0.61;100.00
56174;BME280;42058;52.308;20.924;2023-11-18T01:51:50;100816.20;;;0.60;100.00
56174;BME280;42058;52.308;20.924;2023-11-18T01:54:21;100816.19;;;0.60;100.00
56174;BME280;42058;52.308;20.924;2023-11-18T01:56:49;100815.30;;;0.58;100.00
56174;BME280;42058;52.308;20.924;2023-11-18T01:59:17;100818.72;;;0.57;100.00
56174;BME280;42058;52.308;20.924;2023-11-18T02:01:52;100817.15;;;0.56;100.00
56174;BME280;42058;52.308;20.924;2023-11-18T02:04:21;100813.14;;;0.54;100.00
56174;BME280;42058;52.308;20.924;2023-11-18T02:06:50;100819.16;;;0.53;100.00
56174;BME280;42058;52.308;20.924;2023-11-18T02:09:20;100817.77;;;0.52;100.00
56174;BME280;42058;52.308;20.924;2023-11-18T02:14:39;100824.49;;;0.52;100.00
56174;BME280;42058;52.308;20.924;2023-11-18T02:17:09;100826.39;;;0.51;100.00
56174;BME280;42058;52.308;20.924;2023-11-18T02:19:39;100826.55;;;0.51;100.00
56174;BME280;42058;52.308;20.924;2023-11-18T02:22:08;100831.02;;;0.51;100.00
56174;BME280;42058;52.308;20.924;2023-11-18T02:24:38;100835.66;;;0.49;100.00
56174;BME280;42058;52.308;20.924;2023-11-18T02:27:08;100837.89;;;0.48;100.00
56174;BME280;42058;52.308;20.924;2023-11-18T02:29:44;100839.29;;;0.49;100.00
56174;BME280;42058;52.308;20.924;2023-11-18T02:32:37;100839.79;;;0.49;100.00
56174;BME280;42058;52.308;20.924;2023-11-18T02:35:25;100842.05;;;0.49;100.00
56174;BME280;42058;52.308;20.924;2023-11-18T02:37:56;100842.59;;;0.49;100.00
56174;BME280;42058;52.308;20.924;2023-11-18T02:40:35;100846.70;;;0.49;100.00
56174;BME280;42058;52.308;20.924;2023-11-18T02:43:04;100846.55;;;0.49;100.00
56174;BME280;42058;52.308;20.924;2023-11-18T02:45:34;100847.43;;;0.51;100.00
56174;BME280;42058;52.308;20.924;2023-11-18T02:48:06;100848.81;;;0.51;100.00
56174;BME280;42058;52.308;20.924;2023-11-18T02:50:35;100848.83;;;0.51;100.00
56174;BME280;42058;52.308;20.924;2023-11-18T02:53:03;100850.54;;;0.51;100.00
56174;BME280;42058;52.308;20.924;2023-11-18T02:55:31;100854.67;;;0.51;100.00
56174;BME280;42058;52.308;20.924;2023-11-18T02:57:59;100855.51;;;0.49;100.00
56174;BME280;42058;52.308;20.924;2023-11-18T03:00:29;100856.68;;;0.48;100.00
56174;BME280;42058;52.308;20.924;2023-11-18T03:02:56;100862.91;;;0.49;100.00
56174;BME280;42058;52.308;20.924;2023-11-18T03:05:24;100865.66;;;0.48;100.00
56174;BME280;42058;52.308;20.924;2023-11-18T03:07:53;100868.08;;;0.48;100.00
56174;BME280;42058;52.308;20.924;2023-11-18T03:10:24;100871.19;;;0.48;100.00
56174;BME280;42058;52.308;20.924;2023-11-18T03:12:53;100871.52;;;0.47;100.00
56174;BME280;42058;52.308;20.924;2023-11-18T03:15:22;100871.70;;;0.47;100.00
56174;BME280;42058;52.308;20.924;2023-11-18T03:17:51;100875.31;;;0.47;100.00
56174;BME280;42058;52.308;20.924;2023-11-18T03:20:21;100877.73;;;0.47;100.00
56174;BME280;42058;52.308;20.924;2023-11-18T03:22:50;100881.36;;;0.47;100.00
56174;BME280;42058;52.308;20.924;2023-11-18T03:25:19;100880.48;;;0.46;100.00
56174;BME280;42058;52.308;20.924;2023-11-18T03:27:49;100883.93;;;0.46;100.00
56174;BME280;42058;52.308;20.924;2023-11-18T03:30:16;100888.41;;;0.46;100.00
56174;BME280;42058;52.308;20.924;2023-11-18T03:32:44;100891.87;;;0.46;100.00
56174;BME280;42058;52.308;20.924;2023-11-18T03:35:13;100892.04;;;0.46;100.00
56174;BME280;42058;52.308;20.924;2023-11-18T03:37:41;100896.17;;;0.46;100.00
56174;BME280;42058;52.308;20.924;2023-11-18T03:40:12;100899.27;;;0.45;100.00
56174;BME280;42058;52.308;20.924;2023-11-18T03:42:44;100895.33;;;0.46;100.00
56174;BME280;42058;52.308;20.924;2023-11-18T03:45:14;100896.70;;;0.46;100.00
56174;BME280;42058;52.308;20.924;2023-11-18T03:47:46;100902.41;;;0.47;100.00
56174;BME280;42058;52.308;20.924;2023-11-18T03:50:16;100903.10;;;0.47;100.00
56174;BME280;42058;52.308;20.924;2023-11-18T03:52:44;100907.25;;;0.47;100.00
56174;BME280;42058;52.308;20.924;2023-11-18T03:55:11;100908.98;;;0.48;100.00
56174;BME280;42058;52.308;20.924;2023-11-18T03:57:40;100912.97;;;0.48;100.00
56174;BME280;42058;52.308;20.924;2023-11-18T04:00:08;100911.39;;;0.47;100.00
56174;BME280;42058;52.308;20.924;2023-11-18T04:02:39;100911.55;;;0.47;100.00
56174;BME280;42058;52.308;20.924;2023-11-18T04:05:08;100915.36;;;0.47;100.00
56174;BME280;42058;52.308;20.924;2023-11-18T04:07:36;100918.98;;;0.47;100.00
56174;BME280;42058;52.308;20.924;2023-11-18T04:10:04;100920.91;;;0.48;100.00
56174;BME280;42058;52.308;20.924;2023-11-18T04:12:37;100925.23;;;0.48;100.00
56174;BME280;42058;52.308;20.924;2023-11-18T04:15:06;100926.11;;;0.49;100.00
56174;BME280;42058;52.308;20.924;2023-11-18T04:17:35;100928.86;;;0.49;100.00
56174;BME280;42058;52.308;20.924;2023-11-18T04:20:03;100929.50;;;0.46;100.00
56174;BME280;42058;52.308;20.924;2023-11-18T04:22:43;100934.32;;;0.45;100.00
56174;BME280;42058;52.308;20.924;2023-11-18T04:25:11;100934.31;;;0.45;100.00
56174;BME280;42058;52.308;20.924;2023-11-18T04:27:40;100935.34;;;0.45;100.00
56174;BME280;42058;52.308;20.924;2023-11-18T04:30:11;100929.81;;;0.45;100.00
56174;BME280;42058;52.308;20.924;2023-11-18T04:32:40;100930.34;;;0.45;100.00
56174;BME280;42058;52.308;20.924;2023-11-18T04:35:11;100936.57;;;0.46;100.00
56174;BME280;42058;52.308;20.924;2023-11-18T04:37:40;100943.59;;;0.44;100.00
56174;BME280;42058;52.308;20.924;2023-11-18T04:40:11;100945.31;;;0.43;100.00
56174;BME280;42058;52.308;20.924;2023-11-18T04:42:39;100944.77;;;0.42;100.00
56174;BME280;42058;52.308;20.924;2023-11-18T04:45:07;100941.14;;;0.42;100.00
56174;BME280;42058;52.308;20.924;2023-11-18T04:47:37;100942.20;;;0.43;100.00
56174;BME280;42058;52.308;20.924;2023-11-18T04:50:06;100947.90;;;0.44;100.00
56174;BME280;42058;52.308;20.924;2023-11-18T04:52:36;100949.99;;;0.45;100.00
56174;BME280;42058;52.308;20.924;2023-11-18T04:55:04;100948.79;;;0.45;100.00
56174;BME280;42058;52.308;20.924;2023-11-18T04:57:33;100949.27;;;0.43;100.00
56174;BME280;42058;52.308;20.924;2023-11-18T05:00:02;100955.30;;;0.42;100.00
56174;BME280;42058;52.308;20.924;2023-11-18T05:02:38;100956.14;;;0.41;100.00
56174;BME280;42058;52.308;20.924;2023-11-18T05:05:07;100956.98;;;0.42;100.00
56174;BME280;42058;52.308;20.924;2023-11-18T05:07:35;100955.24;;;0.40;100.00
56174;BME280;42058;52.308;20.924;2023-11-18T05:10:03;100959.05;;;0.41;100.00
56174;BME280;42058;52.308;20.924;2023-11-18T05:12:32;100961.63;;;0.40;100.00
56174;BME280;42058;52.308;20.924;2023-11-18T05:15:00;100969.56;;;0.39;100.00
56174;BME280;42058;52.308;20.924;2023-11-18T05:17:28;100970.91;;;0.38;100.00
56174;BME280;42058;52.308;20.924;2023-11-18T05:19:57;100972.14;;;0.39;100.00
56174;BME280;42058;52.308;20.924;2023-11-18T05:22:25;100970.39;;;0.38;100.00
56174;BME280;42058;52.308;20.924;2023-11-18T05:24:53;100967.77;;;0.37;100.00
56174;BME280;42058;52.308;20.924;2023-11-18T05:27:21;100964.83;;;0.37;100.00
56174;BME280;42058;52.308;20.924;2023-11-18T05:29:48;100969.29;;;0.35;100.00
56174;BME280;42058;52.308;20.924;2023-11-18T05:32:21;100976.02;;;0.35;100.00
56174;BME280;42058;52.308;20.924;2023-11-18T05:34:50;100982.40;;;0.35;100.00
56174;BME280;42058;52.308;20.924;2023-11-18T05:37:21;100988.45;;;0.35;100.00
56174;BME280;42058;52.308;20.924;2023-11-18T05:39:50;100992.58;;;0.34;100.00
56174;BME280;42058;52.308;20.924;2023-11-18T05:42:26;100991.87;;;0.35;100.00
56174;BME280;42058;52.308;20.924;2023-11-18T05:44:58;101002.95;;;0.35;100.00
56174;BME280;42058;52.308;20.924;2023-11-18T05:47:27;101004.15;;;0.35;100.00
56174;BME280;42058;52.308;20.924;2023-11-18T05:49:55;101004.33;;;0.35;100.00
56174;BME280;42058;52.308;20.924;2023-11-18T05:52:23;101009.34;;;0.36;100.00
56174;BME280;42058;52.308;20.924;2023-11-18T05:54:51;101015.23;;;0.37;100.00
56174;BME280;42058;52.308;20.924;2023-11-18T05:57:18;101019.17;;;0.36;100.00
56174;BME280;42058;52.308;20.924;2023-11-18T05:59:46;101025.23;;;0.36;100.00
56174;BME280;42058;52.308;20.924;2023-11-18T06:02:15;101030.90;;;0.35;100.00
56174;BME280;42058;52.308;20.924;2023-11-18T06:04:47;101039.00;;;0.35;100.00
56174;BME280;42058;52.308;20.924;2023-11-18T06:07:14;101039.36;;;0.35;100.00
56174;BME280;42058;52.308;20.924;2023-11-18T06:09:44;101045.20;;;0.34;100.00
56174;BME280;42058;52.308;20.924;2023-11-18T06:12:11;101040.54;;;0.34;100.00
56174;BME280;42058;52.308;20.924;2023-11-18T06:14:40;101042.23;;;0.33;100.00
56174;BME280;42058;52.308;20.924;2023-11-18T06:17:09;101040.67;;;0.32;100.00
56174;BME280;42058;52.308;20.924;2023-11-18T06:19:40;101043.41;;;0.32;100.00
56174;BME280;42058;52.308;20.924;2023-11-18T06:22:08;101045.86;;;0.33;100.00
56174;BME280;42058;52.308;20.924;2023-11-18T06:24:38;101055.34;;;0.33;100.00
56174;BME280;42058;52.308;20.924;2023-11-18T06:27:07;101061.15;;;0.31;100.00
56174;BME280;42058;52.308;20.924;2023-11-18T06:29:36;101067.69;;;0.30;100.00
56174;BME280;42058;52.308;20.924;2023-11-18T06:32:04;101074.08;;;0.29;100.00
56174;BME280;42058;52.308;20.924;2023-11-18T06:34:33;101075.61;;;0.29;100.00
56174;BME280;42058;52.308;20.924;2023-11-18T06:37:01;101079.70;;;0.27;100.00
56174;BME280;42058;52.308;20.924;2023-11-18T06:39:29;101077.42;;;0.26;100.00
56174;BME280;42058;52.308;20.924;2023-11-18T06:41:57;101081.35;;;0.25;100.00
56174;BME280;42058;52.308;20.924;2023-11-18T06:44:26;101085.69;;;0.25;100.00
56174;BME280;42058;52.308;20.924;2023-11-18T06:46:53;101086.05;;;0.25;100.00
56174;BME280;42058;52.308;20.924;2023-11-18T06:49:21;101088.14;;;0.26;100.00
56174;BME280;42058;52.308;20.924;2023-11-18T06:51:49;101088.83;;;0.27;100.00
56174;BME280;42058;52.308;20.924;2023-11-18T06:54:18;101091.95;;;0.27;100.00
56174;BME280;42058;52.308;20.924;2023-11-18T06:56:46;101095.61;;;0.28;100.00
56174;BME280;42058;52.308;20.924;2023-11-18T06:59:14;101098.89;;;0.28;100.00
56174;BME280;42058;52.308;20.924;2023-11-18T07:01:43;101101.19;;;0.30;100.00
56174;BME280;42058;52.308;20.924;2023-11-18T07:04:13;101105.50;;;0.31;100.00
56174;BME280;42058;52.308;20.924;2023-11-18T07:06:43;101112.26;;;0.31;100.00
56174;BME280;42058;52.308;20.924;2023-11-18T07:09:12;101117.49;;;0.33;100.00
56174;BME280;42058;52.308;20.924;2023-11-18T07:11:49;101123.06;;;0.35;100.00
56174;BME280;42058;52.308;20.924;2023-11-18T07:14:18;101128.25;;;0.35;100.00
56174;BME280;42058;52.308;20.924;2023-11-18T07:16:46;101132.89;;;0.35;100.00
56174;BME280;42058;52.308;20.924;2023-11-18T07:19:15;101131.72;;;0.36;100.00
56174;BME280;42058;52.308;20.924;2023-11-18T07:21:49;101137.96;;;0.37;100.00
56174;BME280;42058;52.308;20.924;2023-11-18T07:24:17;101141.64;;;0.39;100.00
56174;BME280;42058;52.308;20.924;2023-11-18T07:26:45;101135.09;;;0.40;100.00
56174;BME280;42058;52.308;20.924;2023-11-18T07:29:13;101140.26;;;0.39;100.00
56174;BME280;42058;52.308;20.924;2023-11-18T07:31:42;101143.23;;;0.41;100.00
56174;BME280;42058;52.308;20.924;2023-11-18T07:34:10;101138.77;;;0.41;100.00
56174;BME280;42058;52.308;20.924;2023-11-18T07:36:38;101145.69;;;0.42;100.00
56174;BME280;42058;52.308;20.924;2023-11-18T07:39:06;101143.79;;;0.42;100.00
56174;BME280;42058;52.308;20.924;2023-11-18T07:41:43;101147.23;;;0.42;100.00
56174;BME280;42058;52.308;20.924;2023-11-18T07:44:11;101149.33;;;0.43;100.00
56174;BME280;42058;52.308;20.924;2023-11-18T07:46:41;101151.59;;;0.43;100.00
56174;BME280;42058;52.308;20.924;2023-11-18T07:49:10;101154.09;;;0.47;100.00
56174;BME280;42058;52.308;20.924;2023-11-18T07:51:39;101152.77;;;0.49;100.00
56174;BME280;42058;52.308;20.924;2023-11-18T07:54:08;101155.41;;;0.51;100.00
56174;BME280;42058;52.308;20.924;2023-11-18T07:56:37;101159.73;;;0.51;100.00
56174;BME280;42058;52.308;20.924;2023-11-18T07:59:05;101163.86;;;0.51;100.00
56174;BME280;42058;52.308;20.924;2023-11-18T08:01:36;101168.53;;;0.51;100.00
56174;BME280;42058;52.308;20.924;2023-11-18T08:04:04;101174.42;;;0.52;100.00
56174;BME280;42058;52.308;20.924;2023-11-18T08:06:34;101177.19;;;0.52;100.00
56174;BME280;42058;52.308;20.924;2023-11-18T08:09:02;101180.83;;;0.53;100.00
56174;BME280;42058;52.308;20.924;2023-11-18T08:11:30;101184.02;;;0.55;100.00
56174;BME280;42058;52.308;20.924;2023-11-18T08:13:58;101185.39;;;0.55;100.00
56174;BME280;42058;52.308;20.924;2023-11-18T08:16:26;101190.45;;;0.57;100.00
56174;BME280;42058;52.308;20.924;2023-11-18T08:18:55;101193.77;;;0.59;100.00
56174;BME280;42058;52.308;20.924;2023-11-18T08:21:23;101198.96;;;0.60;100.00
56174;BME280;42058;52.308;20.924;2023-11-18T08:23:51;101200.20;;;0.61;100.00
56174;BME280;42058;52.308;20.924;2023-11-18T08:26:20;101204.37;;;0.62;100.00
56174;BME280;42058;52.308;20.924;2023-11-18T08:28:48;101208.03;;;0.63;100.00
56174;BME280;42058;52.308;20.924;2023-11-18T08:31:16;101208.08;;;0.65;100.00
56174;BME280;42058;52.308;20.924;2023-11-18T08:33:44;101209.81;;;0.65;100.00
56174;BME280;42058;52.308;20.924;2023-11-18T08:36:13;101212.06;;;0.65;100.00
56174;BME280;42058;52.308;20.924;2023-11-18T08:38:41;101214.98;;;0.64;100.00
56174;BME280;42058;52.308;20.924;2023-11-18T08:41:11;101215.11;;;0.63;100.00
56174;BME280;42058;52.308;20.924;2023-11-18T08:43:39;101213.09;;;0.65;100.00
56174;BME280;42058;52.308;20.924;2023-11-18T08:46:08;101219.02;;;0.67;100.00
56174;BME280;42058;52.308;20.924;2023-11-18T08:48:36;101216.64;;;0.69;100.00
56174;BME280;42058;52.308;20.924;2023-11-18T08:51:05;101217.23;;;0.71;100.00
56174;BME280;42058;52.308;20.924;2023-11-18T08:53:36;101220.02;;;0.73;100.00
56174;BME280;42058;52.308;20.924;2023-11-18T08:56:09;101222.02;;;0.76;100.00
56174;BME280;42058;52.308;20.924;2023-11-18T08:58:42;101225.50;;;0.77;100.00
56174;BME280;42058;52.308;20.924;2023-11-18T09:01:12;101228.41;;;0.76;100.00
56174;BME280;42058;52.308;20.924;2023-11-18T09:03:43;101229.10;;;0.76;100.00
56174;BME280;42058;52.308;20.924;2023-11-18T09:06:16;101232.89;;;0.76;100.00
56174;BME280;42058;52.308;20.924;2023-11-18T09:08:53;101234.96;;;0.76;100.00
56174;BME280;42058;52.308;20.924;2023-11-18T09:11:23;101232.51;;;0.74;100.00
56174;BME280;42058;52.308;20.924;2023-11-18T09:13:51;101239.34;;;0.71;100.00
56174;BME280;42058;52.308;20.924;2023-11-18T09:16:25;101239.61;;;0.69;100.00
56174;BME280;42058;52.308;20.924;2023-11-18T09:18:55;101245.10;;;0.67;100.00
56174;BME280;42058;52.308;20.924;2023-11-18T09:21:24;101243.56;;;0.68;100.00
56174;BME280;42058;52.308;20.924;2023-11-18T09:23:56;101242.02;;;0.69;100.00
56174;BME280;42058;52.308;20.924;2023-11-18T09:26:24;101244.29;;;0.69;100.00
56174;BME280;42058;52.308;20.924;2023-11-18T09:28:54;101245.56;;;0.71;100.00
56174;BME280;42058;52.308;20.924;2023-11-18T09:31:22;101249.81;;;0.75;100.00
56174;BME280;42058;52.308;20.924;2023-11-18T09:33:50;101249.52;;;0.78;100.00
56174;BME280;42058;52.308;20.924;2023-11-18T09:36:21;101249.84;;;0.77;100.00
56174;BME280;42058;52.308;20.924;2023-11-18T09:38:50;101254.70;;;0.77;100.00
56174;BME280;42058;52.308;20.924;2023-11-18T09:41:18;101256.77;;;0.78;100.00
56174;BME280;42058;52.308;20.924;2023-11-18T09:43:46;101257.25;;;0.76;100.00
56174;BME280;42058;52.308;20.924;2023-11-18T09:46:17;101255.19;;;0.76;100.00
56174;BME280;42058;52.308;20.924;2023-11-18T09:48:52;101250.98;;;0.74;100.00
56174;BME280;42058;52.308;20.924;2023-11-18T09:51:22;101246.06;;;0.78;100.00
56174;BME280;42058;52.308;20.924;2023-11-18T09:53:52;101249.00;;;0.78;100.00
56174;BME280;42058;52.308;20.924;2023-11-18T09:56:36;101249.77;;;0.81;100.00
56174;BME280;42058;52.308;20.924;2023-11-18T10:01:45;101257.18;;;0.80;100.00
56174;BME280;42058;52.308;20.924;2023-11-18T10:04:23;101258.89;;;0.80;100.00
56174;BME280;42058;52.308;20.924;2023-11-18T10:06:55;101261.45;;;0.78;100.00
56174;BME280;42058;52.308;20.924;2023-11-18T10:09:24;101257.02;;;0.80;100.00
56174;BME280;42058;52.308;20.924;2023-11-18T10:12:21;101252.55;;;0.82;100.00
56174;BME280;42058;52.308;20.924;2023-11-18T10:14:51;101251.84;;;0.80;100.00
56174;BME280;42058;52.308;20.924;2023-11-18T10:17:23;101257.24;;;0.82;100.00
56174;BME280;42058;52.308;20.924;2023-11-18T10:22:29;101263.86;;;0.84;100.00
56174;BME280;42058;52.308;20.924;2023-11-18T10:25:00;101266.95;;;0.84;100.00
56174;BME280;42058;52.308;20.924;2023-11-18T10:27:29;101266.05;;;0.82;100.00
56174;BME280;42058;52.308;20.924;2023-11-18T10:30:02;101260.66;;;0.81;100.00
56174;BME280;42058;52.308;20.924;2023-11-18T10:32:31;101258.29;;;0.82;100.00
56174;BME280;42058;52.308;20.924;2023-11-18T10:35:03;101264.73;;;0.85;100.00
56174;BME280;42058;52.308;20.924;2023-11-18T10:37:35;101267.53;;;0.86;100.00
56174;BME280;42058;52.308;20.924;2023-11-18T10:40:10;101267.55;;;0.87;100.00
56174;BME280;42058;52.308;20.924;2023-11-18T10:42:41;101267.95;;;0.89;100.00
56174;BME280;42058;52.308;20.924;2023-11-18T10:45:12;101265.75;;;0.90;100.00
56174;BME280;42058;52.308;20.924;2023-11-18T10:47:42;101260.81;;;0.93;100.00
56174;BME280;42058;52.308;20.924;2023-11-18T10:50:10;101257.48;;;0.98;100.00
56174;BME280;42058;52.308;20.924;2023-11-18T10:52:38;101259.81;;;1.01;100.00
56174;BME280;42058;52.308;20.924;2023-11-18T10:55:09;101257.60;;;1.03;100.00
56174;BME280;42058;52.308;20.924;2023-11-18T10:57:40;101259.02;;;1.05;100.00
56174;BME280;42058;52.308;20.924;2023-11-18T11:00:11;101263.48;;;1.03;100.00
56174;BME280;42058;52.308;20.924;2023-11-18T11:02:43;101267.95;;;1.03;100.00
56174;BME280;42058;52.308;20.924;2023-11-18T11:05:11;101268.25;;;1.00;100.00
56174;BME280;42058;52.308;20.924;2023-11-18T11:07:49;101270.77;;;0.97;100.00
56174;BME280;42058;52.308;20.924;2023-11-18T11:10:17;101272.45;;;0.96;100.00
56174;BME280;42058;52.308;20.924;2023-11-18T11:12:54;101275.85;;;0.93;100.00
56174;BME280;42058;52.308;20.924;2023-11-18T11:15:27;101284.58;;;0.90;100.00
56174;BME280;42058;52.308;20.924;2023-11-18T11:18:05;101284.36;;;0.88;100.00
56174;BME280;42058;52.308;20.924;2023-11-18T11:20:47;101286.25;;;0.88;100.00
56174;BME280;42058;52.308;20.924;2023-11-18T11:23:30;101284.03;;;0.89;100.00
56174;BME280;42058;52.308;20.924;2023-11-18T11:26:28;101288.50;;;0.89;100.00
56174;BME280;42058;52.308;20.924;2023-11-18T11:29:32;101291.95;;;0.88;100.00
56174;BME280;42058;52.308;20.924;2023-11-18T11:32:22;101292.45;;;0.88;100.00
56174;BME280;42058;52.308;20.924;2023-11-18T11:34:54;101290.98;;;0.85;100.00
56174;BME280;42058;52.308;20.924;2023-11-18T11:37:25;101294.02;;;0.82;100.00
56174;BME280;42058;52.308;20.924;2023-11-18T11:39:55;101299.29;;;0.79;100.00
56174;BME280;42058;52.308;20.924;2023-11-18T11:42:26;101304.48;;;0.79;100.00
56174;BME280;42058;52.308;20.924;2023-11-18T11:44:54;101304.19;;;0.81;100.00
56174;BME280;42058;52.308;20.924;2023-11-18T11:47:24;101305.70;;;0.79;100.00
56174;BME280;42058;52.308;20.924;2023-11-18T11:50:13;101307.75;;;0.79;100.00
56174;BME280;42058;52.308;20.924;2023-11-18T11:52:53;101313.62;;;0.78;100.00
56174;BME280;42058;52.308;20.924;2023-11-18T11:55:34;101321.27;;;0.80;100.00
56174;BME280;42058;52.308;20.924;2023-11-18T11:58:25;101318.19;;;0.81;100.00
56174;BME280;42058;52.308;20.924;2023-11-18T12:00:53;101325.19;;;0.84;100.00
56174;BME280;42058;52.308;20.924;2023-11-18T12:03:22;101327.80;;;0.85;100.00
56174;BME280;42058;52.308;20.924;2023-11-18T12:05:55;101326.77;;;0.86;100.00
56174;BME280;42058;52.308;20.924;2023-11-18T12:08:23;101330.66;;;0.83;100.00
56174;BME280;42058;52.308;20.924;2023-11-18T12:10:53;101327.84;;;0.81;100.00
56174;BME280;42058;52.308;20.924;2023-11-18T12:13:21;101333.41;;;0.82;100.00
56174;BME280;42058;52.308;20.924;2023-11-18T12:15:55;101334.13;;;0.82;100.00
56174;BME280;42058;52.308;20.924;2023-11-18T12:18:31;101340.21;;;0.84;100.00
56174;BME280;42058;52.308;20.924;2023-11-18T12:21:01;101340.80;;;0.87;100.00
56174;BME280;42058;52.308;20.924;2023-11-18T12:23:30;101341.73;;;0.89;100.00
56174;BME280;42058;52.308;20.924;2023-11-18T12:25:59;101344.04;;;0.91;100.00
56174;BME280;42058;52.308;20.924;2023-11-18T12:28:29;101345.60;;;0.91;100.00
56174;BME280;42058;52.308;20.924;2023-11-18T12:31:04;101345.32;;;0.88;100.00
56174;BME280;42058;52.308;20.924;2023-11-18T12:41:38;101362.21;;;0.87;100.00
56174;BME280;42058;52.308;20.924;2023-11-18T12:44:30;101367.40;;;0.87;100.00
56174;BME280;42058;52.308;20.924;2023-11-18T12:47:03;101373.88;;;0.83;100.00
56174;BME280;42058;52.308;20.924;2023-11-18T12:49:42;101379.80;;;0.79;100.00
56174;BME280;42058;52.308;20.924;2023-11-18T12:52:11;101387.86;;;0.77;100.00
56174;BME280;42058;52.308;20.924;2023-11-18T12:54:43;101390.25;;;0.76;100.00
56174;BME280;42058;52.308;20.924;2023-11-18T12:57:11;101389.37;;;0.76;100.00
56174;BME280;42058;52.308;20.924;2023-11-18T12:59:43;101388.90;;;0.78;100.00
56174;BME280;42058;52.308;20.924;2023-11-18T13:02:11;101392.52;;;0.77;100.00
56174;BME280;42058;52.308;20.924;2023-11-18T13:04:47;101399.89;;;0.75;100.00
56174;BME280;42058;52.308;20.924;2023-11-18T13:07:17;101400.83;;;0.72;100.00
56174;BME280;42058;52.308;20.924;2023-11-18T13:09:46;101410.77;;;0.69;100.00
56174;BME280;42058;52.308;20.924;2023-11-18T13:12:14;101407.88;;;0.65;100.00